createdAt,value
2023-04-07T00:02:19.471Z,49.40
2023-04-07T00:04:46.833Z,49.80
2023-04-07T00:07:14.131Z,49.60
2023-04-07T00:09:42.824Z,49.40
2023-04-07T00:12:10.040Z,49.60
2023-04-07T00:14:37.203Z,49.80
2023-04-07T00:17:04.458Z,49.60
2023-04-07T00:19:33.502Z,49.80
2023-04-07T00:22:00.799Z,49.70
2023-04-07T00:24:34.342Z,49.90
2023-04-07T00:27:02.402Z,50.20
2023-04-07T00:29:29.714Z,50.30
2023-04-07T00:31:56.934Z,50.30
2023-04-07T00:34:24.157Z,50.30
2023-04-07T00:36:54.547Z,50.30
2023-04-07T00:39:22.013Z,50.40
2023-04-07T00:41:49.323Z,50.60
2023-04-07T00:44:16.755Z,50.60
2023-04-07T00:46:44.248Z,50.30
2023-04-07T00:49:13.359Z,50.60
2023-04-07T00:51:40.781Z,50.30
2023-04-07T00:54:08.047Z,50.30
2023-04-07T00:56:35.874Z,50.90
2023-04-07T00:59:06.540Z,50.30
2023-04-07T01:01:45.107Z,50.30
2023-04-07T01:04:46.554Z,50.20
2023-04-07T01:07:24.512Z,50.10
2023-04-07T01:10:07.467Z,50.10
2023-04-07T01:12:52.756Z,50.30
2023-04-07T01:15:26.942Z,50.10
2023-04-07T01:18:16.056Z,50.10
2023-04-07T01:20:47.327Z,50.10
2023-04-07T01:23:36.531Z,50.10
2023-04-07T01:26:27.970Z,50.00
2023-04-07T01:29:27.307Z,50.30
2023-04-07T01:31:58.669Z,50.30
2023-04-07T01:34:30.074Z,50.30
2023-04-07T01:37:01.746Z,50.30
2023-04-07T01:39:30.504Z,50.50
2023-04-07T01:42:02.364Z,50.50
2023-04-07T01:44:32.575Z,50.40
2023-04-07T01:47:01.765Z,50.50
2023-04-07T01:49:32.356Z,50.70
2023-04-07T01:52:00.801Z,50.70
2023-04-07T01:54:29.453Z,50.70
2023-04-07T01:56:56.775Z,50.80
2023-04-07T01:59:24.063Z,51.00
2023-04-07T02:01:51.585Z,51.10
2023-04-07T02:04:39.076Z,51.10
2023-04-07T02:07:18.689Z,51.10
2023-04-07T02:09:49.777Z,51.20
2023-04-07T02:12:17.941Z,51.10
2023-04-07T02:14:46.608Z,51.20
2023-04-07T02:17:16.626Z,51.30
2023-04-07T02:19:46.219Z,51.30
2023-04-07T02:22:15.837Z,51.20
2023-04-07T02:24:43.533Z,51.20
2023-04-07T02:27:10.876Z,51.70
2023-04-07T02:29:38.080Z,52.20
2023-04-07T02:32:06.891Z,51.50
2023-04-07T02:34:34.172Z,51.60
2023-04-07T02:37:01.647Z,52.00
2023-04-07T02:39:28.924Z,51.90
2023-04-07T02:41:58.072Z,52.00
2023-04-07T02:44:25.816Z,52.30
2023-04-07T02:46:53.027Z,52.70
2023-04-07T02:49:20.260Z,52.60
2023-04-07T02:51:47.427Z,52.30
2023-04-07T02:54:14.675Z,52.50
2023-04-07T02:56:41.879Z,52.70
2023-04-07T02:59:09.117Z,52.70
2023-04-07T03:01:36.652Z,52.80
2023-04-07T03:04:04.076Z,53.20
2023-04-07T03:06:31.686Z,53.30
2023-04-07T03:08:59.059Z,54.30
2023-04-07T03:11:26.354Z,53.80
2023-04-07T03:13:53.821Z,54.00
2023-04-07T03:16:21.274Z,54.10
2023-04-07T03:18:48.626Z,54.30
2023-04-07T03:21:15.823Z,54.60
2023-04-07T03:23:43.018Z,54.90
2023-04-07T03:26:11.522Z,55.20
2023-04-07T03:28:38.769Z,55.40
2023-04-07T03:31:06.062Z,55.10
2023-04-07T03:33:33.468Z,55.50
2023-04-07T03:36:00.997Z,55.30
2023-04-07T03:38:29.466Z,55.30
2023-04-07T03:40:56.817Z,55.60
2023-04-07T03:43:24.075Z,55.60
2023-04-07T03:45:53.865Z,56.20
2023-04-07T03:48:21.347Z,56.00
2023-04-07T03:50:48.595Z,55.80
2023-04-07T03:53:16.818Z,55.70
2023-04-07T03:55:44.460Z,56.00
2023-04-07T03:58:12.320Z,56.20
2023-04-07T04:00:41.206Z,56.30
2023-04-07T04:03:09.171Z,56.30
2023-04-07T04:05:36.554Z,56.60
2023-04-07T04:08:04.151Z,56.80
2023-04-07T04:10:32.585Z,56.60
2023-04-07T04:13:05.080Z,56.80
2023-04-07T04:15:32.638Z,57.70
2023-04-07T04:17:59.869Z,57.00
2023-04-07T04:20:27.138Z,57.00
2023-04-07T04:22:54.395Z,57.10
2023-04-07T04:25:21.825Z,57.50
2023-04-07T04:27:49.094Z,57.80
2023-04-07T04:30:16.685Z,57.50
2023-04-07T04:32:43.947Z,57.50
2023-04-07T04:35:11.350Z,57.80
2023-04-07T04:37:38.637Z,58.10
2023-04-07T04:40:08.627Z,58.10
2023-04-07T04:42:37.160Z,58.10
2023-04-07T04:45:04.624Z,58.50
2023-04-07T04:47:44.003Z,58.30
2023-04-07T04:50:23.534Z,57.80
2023-04-07T04:52:56.444Z,57.80
2023-04-07T04:55:23.828Z,57.80
2023-04-07T04:57:54.848Z,57.80
2023-04-07T05:00:22.150Z,58.10
2023-04-07T05:02:57.212Z,57.90
2023-04-07T05:05:24.619Z,58.00
2023-04-07T05:07:51.837Z,58.40
2023-04-07T05:10:20.478Z,58.00
2023-04-07T05:12:52.617Z,58.30
2023-04-07T05:15:20.474Z,58.30
2023-04-07T05:17:50.806Z,58.40
2023-04-07T05:20:21.576Z,58.30
2023-04-07T05:22:51.259Z,58.60
2023-04-07T05:25:22.067Z,58.50
2023-04-07T05:27:52.019Z,58.50
2023-04-07T05:30:22.690Z,58.90
2023-04-07T05:32:54.085Z,58.60
2023-04-07T05:35:21.579Z,58.70
2023-04-07T05:38:10.777Z,58.50
2023-04-07T05:40:41.601Z,58.80
2023-04-07T05:43:09.084Z,58.70
2023-04-07T05:45:40.919Z,58.50
2023-04-07T05:48:08.212Z,58.60
2023-04-07T05:50:35.898Z,58.50
2023-04-07T05:53:03.300Z,58.70
2023-04-07T05:55:31.193Z,58.60
2023-04-07T05:57:58.485Z,58.50
2023-04-07T06:00:26.330Z,58.50
2023-04-07T06:02:54.290Z,58.50
2023-04-07T06:05:23.874Z,58.50
2023-04-07T06:07:51.165Z,58.40
2023-04-07T06:10:18.404Z,58.30
2023-04-07T06:12:45.810Z,58.10
2023-04-07T06:15:14.183Z,58.00
2023-04-07T06:17:41.412Z,57.90
2023-04-07T06:20:09.222Z,58.00
2023-04-07T06:22:36.637Z,57.90
2023-04-07T06:25:06.170Z,57.90
2023-04-07T06:27:56.159Z,57.80
2023-04-07T06:30:52.408Z,57.80
2023-04-07T06:33:25.571Z,57.70
2023-04-07T06:35:52.997Z,57.70
2023-04-07T06:38:20.603Z,57.70
2023-04-07T06:40:47.913Z,57.70
2023-04-07T06:43:15.215Z,57.80
2023-04-07T06:45:44.672Z,57.70
2023-04-07T06:48:12.051Z,57.70
2023-04-07T06:50:39.798Z,57.60
2023-04-07T06:53:07.169Z,57.50
2023-04-07T06:55:34.409Z,57.40
2023-04-07T06:58:02.033Z,57.30
2023-04-07T07:00:31.154Z,56.90
2023-04-07T07:02:58.619Z,56.80
2023-04-07T07:05:29.665Z,57.00
2023-04-07T07:07:58.178Z,57.10
2023-04-07T07:10:32.722Z,57.10
2023-04-07T07:13:01.888Z,57.10
2023-04-07T07:15:29.200Z,57.00
2023-04-07T07:17:57.535Z,56.80
2023-04-07T07:20:26.129Z,56.80
2023-04-07T07:22:56.930Z,56.80
2023-04-07T07:25:29.298Z,56.80
2023-04-07T07:28:07.943Z,56.80
2023-04-07T07:30:41.418Z,56.80
2023-04-07T07:33:08.971Z,57.50
2023-04-07T07:35:38.022Z,58.30
2023-04-07T07:38:07.536Z,58.10
2023-04-07T07:40:37.347Z,59.00
2023-04-07T07:43:08.383Z,59.00
2023-04-07T07:45:39.711Z,59.20
2023-04-07T07:48:09.471Z,59.70
2023-04-07T07:54:09.724Z,59.90
2023-04-07T07:56:45.805Z,60.00
2023-04-07T07:59:18.131Z,60.10
2023-04-07T08:01:45.588Z,60.40
2023-04-07T08:04:13.066Z,60.90
2023-04-07T08:06:43.212Z,61.80
2023-04-07T08:09:10.714Z,62.30
2023-04-07T08:11:38.573Z,62.90
2023-04-07T08:14:07.450Z,63.10
2023-04-07T08:16:36.075Z,62.60
2023-04-07T08:19:03.484Z,63.00
2023-04-07T08:21:31.782Z,62.90
2023-04-07T08:23:59.268Z,62.80
2023-04-07T08:26:26.623Z,63.00
2023-04-07T08:28:56.101Z,63.40
2023-04-07T08:31:23.523Z,63.10
2023-04-07T08:33:54.303Z,63.30
2023-04-07T08:36:21.807Z,63.80
2023-04-07T08:38:50.222Z,62.50
2023-04-07T08:41:20.262Z,62.30
2023-04-07T08:43:50.550Z,62.20
2023-04-07T08:46:22.877Z,61.40
2023-04-07T08:48:53.089Z,61.30
2023-04-07T08:51:32.343Z,61.20
2023-04-07T08:54:22.219Z,60.90
2023-04-07T08:56:50.455Z,60.90
2023-04-07T08:59:18.793Z,60.60
2023-04-07T09:01:47.464Z,60.60
2023-04-07T09:04:15.168Z,59.60
2023-04-07T09:06:43.942Z,60.20
2023-04-07T09:09:11.432Z,60.50
2023-04-07T09:11:41.083Z,60.60
2023-04-07T09:14:08.453Z,60.70
2023-04-07T09:16:36.041Z,60.60
2023-04-07T09:19:03.548Z,60.50
2023-04-07T09:21:52.388Z,60.40
2023-04-07T09:24:28.732Z,60.30
2023-04-07T09:27:18.862Z,60.40
2023-04-07T09:29:48.319Z,60.10
2023-04-07T09:32:43.955Z,60.10
2023-04-07T09:35:11.687Z,59.90
2023-04-07T09:37:39.149Z,59.80
2023-04-07T09:40:07.582Z,60.00
2023-04-07T09:42:37.049Z,59.80
2023-04-07T09:45:04.592Z,59.90
2023-04-07T09:47:33.346Z,59.40
2023-04-07T09:50:07.013Z,59.50
2023-04-07T09:52:56.884Z,59.30
2023-04-07T09:55:24.685Z,59.30
2023-04-07T09:57:53.437Z,59.20
2023-04-07T10:00:25.256Z,59.00
2023-04-07T10:02:56.838Z,58.80
2023-04-07T10:05:25.375Z,58.90
2023-04-07T10:07:55.948Z,58.90
2023-04-07T10:10:30.261Z,58.70
2023-04-07T10:12:59.123Z,58.70
2023-04-07T10:15:26.751Z,58.70
2023-04-07T10:17:56.899Z,58.60
2023-04-07T10:20:27.719Z,58.50
2023-04-07T10:23:04.868Z,58.70
2023-04-07T10:25:32.698Z,58.60
2023-04-07T10:28:06.740Z,58.40
2023-04-07T10:30:35.907Z,58.10
2023-04-07T10:33:03.712Z,58.40
2023-04-07T10:36:06.663Z,58.30
2023-04-07T10:38:34.110Z,58.50
2023-04-07T10:41:36.833Z,58.30
2023-04-07T10:44:10.001Z,58.20
2023-04-07T10:46:47.386Z,58.40
2023-04-07T10:49:19.320Z,58.80
2023-04-07T10:52:12.565Z,58.90
2023-04-07T10:54:41.569Z,59.10
2023-04-07T10:57:15.915Z,59.30
2023-04-07T11:00:12.240Z,59.40
2023-04-07T11:02:40.888Z,59.90
2023-04-07T11:05:09.017Z,60.00
2023-04-07T11:07:55.715Z,60.10
2023-04-07T11:10:23.415Z,60.90
2023-04-07T11:13:08.729Z,60.90
2023-04-07T11:15:40.457Z,60.90
2023-04-07T11:18:21.197Z,62.50
2023-04-07T11:21:00.305Z,62.10
2023-04-07T11:23:27.959Z,62.40
2023-04-07T11:26:02.764Z,64.00
2023-04-07T11:28:31.093Z,63.80
2023-04-07T11:31:00.421Z,64.30
2023-04-07T11:33:34.600Z,64.40
2023-04-07T11:36:04.961Z,64.10
2023-04-07T11:38:44.901Z,64.50
2023-04-07T11:41:15.696Z,65.50
2023-04-07T11:43:43.061Z,66.40
2023-04-07T11:46:18.199Z,66.90
2023-04-07T11:48:47.455Z,66.10
2023-04-07T11:51:21.242Z,67.30
2023-04-07T11:53:57.004Z,67.50
2023-04-07T11:56:24.502Z,67.20
2023-04-07T11:58:54.801Z,67.10
2023-04-07T12:01:24.902Z,67.50
2023-04-07T12:04:04.542Z,67.20
2023-04-07T12:06:39.000Z,67.50
2023-04-07T12:09:06.478Z,67.70
2023-04-07T12:11:35.963Z,67.80
2023-04-07T12:14:05.413Z,68.10
2023-04-07T12:16:33.007Z,68.00
2023-04-07T12:19:02.467Z,67.80
2023-04-07T12:21:29.626Z,67.30
2023-04-07T12:23:56.881Z,67.80
2023-04-07T12:26:25.563Z,66.60
2023-04-07T12:28:52.867Z,66.00
2023-04-07T12:31:20.668Z,65.50
2023-04-07T12:33:48.300Z,65.60
2023-04-07T12:36:16.364Z,66.00
2023-04-07T12:38:43.977Z,66.30
2023-04-07T12:41:12.454Z,66.10
2023-04-07T12:43:39.776Z,66.00
2023-04-07T12:46:08.356Z,66.30
2023-04-07T12:48:35.975Z,66.30
2023-04-07T12:51:05.478Z,66.30
2023-04-07T12:53:32.797Z,66.30
2023-04-07T12:56:00.039Z,66.20
2023-04-07T12:58:27.450Z,65.90
2023-04-07T13:00:54.891Z,64.80
2023-04-07T13:03:22.722Z,64.60
2023-04-07T13:05:51.593Z,64.00
2023-04-07T13:08:18.867Z,63.30
2023-04-07T13:10:47.459Z,63.30
2023-04-07T13:13:14.721Z,63.00
2023-04-07T13:15:42.052Z,62.40
2023-04-07T13:18:11.984Z,62.00
2023-04-07T13:20:39.232Z,62.10
2023-04-07T13:23:09.569Z,61.70
2023-04-07T13:25:38.026Z,61.60
2023-04-07T13:28:05.960Z,61.30
2023-04-07T13:30:33.453Z,61.20
2023-04-07T13:33:01.100Z,61.50
2023-04-07T13:35:32.791Z,61.50
2023-04-07T13:38:00.132Z,62.00
2023-04-07T13:40:27.384Z,61.20
2023-04-07T13:42:55.823Z,61.90
2023-04-07T13:45:24.456Z,61.90
2023-04-07T13:47:51.842Z,61.80
2023-04-07T13:50:19.300Z,61.80
2023-04-07T13:52:47.429Z,61.90
2023-04-07T13:55:16.060Z,61.90
2023-04-07T13:57:43.306Z,61.60
2023-04-07T14:00:11.344Z,61.80
2023-04-07T14:02:38.743Z,62.00
2023-04-07T14:05:06.640Z,62.10
2023-04-07T14:07:34.606Z,62.00
2023-04-07T14:10:02.044Z,62.00
2023-04-07T14:12:29.319Z,61.40
2023-04-07T14:14:56.894Z,62.60
2023-04-07T14:17:24.236Z,62.00
2023-04-07T14:19:51.568Z,62.80
2023-04-07T14:22:20.026Z,62.60
2023-04-07T14:24:47.178Z,62.50
2023-04-07T14:27:16.754Z,62.60
2023-04-07T14:29:44.000Z,62.30
2023-04-07T14:32:13.896Z,62.50
2023-04-07T14:34:41.319Z,62.90
2023-04-07T14:37:08.786Z,62.60
2023-04-07T14:39:37.150Z,62.70
2023-04-07T14:42:04.631Z,62.70
2023-04-07T14:44:33.249Z,62.50
2023-04-07T14:47:00.413Z,62.30
2023-04-07T14:49:28.956Z,61.90
2023-04-07T14:51:57.430Z,62.30
2023-04-07T14:54:24.836Z,62.30
2023-04-07T14:56:52.068Z,62.30
2023-04-07T14:59:19.283Z,62.40
2023-04-07T15:01:48.393Z,62.60
2023-04-07T15:04:18.838Z,62.60
2023-04-07T15:06:47.455Z,62.70
2023-04-07T15:09:14.849Z,62.20
2023-04-07T15:11:42.069Z,62.20
2023-04-07T15:14:09.289Z,62.20
2023-04-07T15:16:37.638Z,62.10
2023-04-07T15:19:04.855Z,62.20
2023-04-07T15:21:32.341Z,62.20
2023-04-07T15:23:59.562Z,62.10
2023-04-07T15:26:26.921Z,62.10
2023-04-07T15:28:57.080Z,62.10
2023-04-07T15:31:27.305Z,62.10
2023-04-07T15:33:56.794Z,62.10
2023-04-07T15:36:24.394Z,62.10
2023-04-07T15:38:51.674Z,62.40
2023-04-07T15:41:18.951Z,62.30
2023-04-07T15:43:46.470Z,62.90
2023-04-07T15:46:15.730Z,62.70
2023-04-07T15:48:43.001Z,62.90
2023-04-07T15:51:10.355Z,63.00
2023-04-07T15:53:37.611Z,63.00
2023-04-07T15:56:05.408Z,63.00
2023-04-07T15:58:34.214Z,63.50
2023-04-07T16:01:01.850Z,63.30
2023-04-07T16:03:29.382Z,63.30
2023-04-07T16:05:57.076Z,63.20
2023-04-07T16:08:27.318Z,63.30
2023-04-07T16:10:54.577Z,63.40
2023-04-07T16:13:21.869Z,63.70
2023-04-07T16:15:49.199Z,63.50
2023-04-07T16:18:16.672Z,63.80
2023-04-07T16:20:44.336Z,63.80
2023-04-07T16:23:12.865Z,63.80
2023-04-07T16:25:40.338Z,63.90
2023-04-07T16:28:08.927Z,64.00
2023-04-07T16:30:36.492Z,64.00
2023-04-07T16:33:03.884Z,64.00
2023-04-07T16:35:34.095Z,64.20
2023-04-07T16:38:04.515Z,64.20
2023-04-07T16:40:33.509Z,64.30
2023-04-07T16:43:00.964Z,64.30
2023-04-07T16:45:28.248Z,64.30
2023-04-07T16:47:55.609Z,64.30
2023-04-07T16:50:23.156Z,64.50
2023-04-07T16:52:50.600Z,64.60
2023-04-07T16:55:18.046Z,64.70
2023-04-07T16:57:45.475Z,64.60
2023-04-07T17:00:14.296Z,64.80
2023-04-07T17:02:41.655Z,64.70
2023-04-07T17:05:09.738Z,64.70
2023-04-07T17:07:37.057Z,65.00
2023-04-07T17:10:04.690Z,65.20
2023-04-07T17:12:34.221Z,65.00
2023-04-07T17:15:01.607Z,64.90
2023-04-07T17:17:28.968Z,65.00
2023-04-07T17:19:57.347Z,65.20
2023-04-07T17:22:24.814Z,65.20
2023-04-07T17:24:52.567Z,65.20
2023-04-07T17:27:20.020Z,65.00
2023-04-07T17:29:47.258Z,65.00
2023-04-07T17:32:15.588Z,65.00
2023-04-07T17:34:42.839Z,65.20
2023-04-07T17:37:10.139Z,65.20
2023-04-07T17:39:37.334Z,65.20
2023-04-07T17:42:04.659Z,65.30
2023-04-07T17:44:31.939Z,65.20
2023-04-07T17:46:59.292Z,65.40
2023-04-07T17:49:26.759Z,65.40
2023-04-07T17:51:55.548Z,65.30
2023-04-07T17:54:22.908Z,65.40
2023-04-07T17:56:50.215Z,65.50
2023-04-07T17:59:17.488Z,65.50
2023-04-07T18:01:45.088Z,65.50
2023-04-07T18:04:15.620Z,65.50
2023-04-07T18:06:44.999Z,65.60
2023-04-07T18:09:12.251Z,65.70
2023-04-07T18:11:39.534Z,65.80
2023-04-07T18:14:06.757Z,65.80
2023-04-07T18:16:35.859Z,65.90
2023-04-07T18:19:03.363Z,65.80
2023-04-07T18:21:31.288Z,65.80
2023-04-07T18:23:58.606Z,65.90
2023-04-07T18:26:25.916Z,65.80
2023-04-07T18:28:56.175Z,65.90
2023-04-07T18:31:23.569Z,65.80
2023-04-07T18:33:51.120Z,65.90
2023-04-07T18:36:19.114Z,66.10
2023-04-07T18:38:46.345Z,66.10
2023-04-07T18:41:14.352Z,66.10
2023-04-07T18:43:42.259Z,66.00
2023-04-07T18:46:09.571Z,66.10
2023-04-07T18:48:36.867Z,66.10
2023-04-07T18:51:04.356Z,66.10
2023-04-07T18:53:31.661Z,66.10
2023-04-07T18:55:59.374Z,66.10
2023-04-07T18:58:26.581Z,66.10
2023-04-07T19:00:56.070Z,66.10
2023-04-07T19:03:26.229Z,66.20
2023-04-07T19:05:55.334Z,66.30
2023-04-07T19:08:22.724Z,66.30
2023-04-07T19:10:51.198Z,66.20
2023-04-07T19:13:19.577Z,66.20
2023-04-07T19:15:47.366Z,66.30
2023-04-07T19:18:14.707Z,66.60
2023-04-07T19:20:41.984Z,66.70
2023-04-07T19:23:09.286Z,67.00
2023-04-07T19:25:36.963Z,67.30
2023-04-07T19:28:05.439Z,67.70
2023-04-07T19:30:32.584Z,68.10
2023-04-07T19:32:59.906Z,68.40
2023-04-07T19:35:27.234Z,68.40
2023-04-07T19:37:54.701Z,68.70
2023-04-07T19:40:24.782Z,68.90
2023-04-07T19:42:52.210Z,69.40
2023-04-07T19:45:19.790Z,69.90
2023-04-07T19:47:47.719Z,70.30
2023-04-07T19:50:15.161Z,70.70
2023-04-07T19:52:45.633Z,70.90
2023-04-07T19:55:14.206Z,71.00
2023-04-07T19:57:41.573Z,71.00
2023-04-07T20:00:18.686Z,71.20
2023-04-07T20:02:46.141Z,71.50
2023-04-07T20:05:32.899Z,71.80
2023-04-07T20:08:03.801Z,72.20
2023-04-07T20:10:31.333Z,72.50
2023-04-07T20:12:58.916Z,72.60
2023-04-07T20:15:26.231Z,72.80
2023-04-07T20:17:54.816Z,73.50
2023-04-07T20:20:23.678Z,73.00
2023-04-07T20:22:51.340Z,73.20
2023-04-07T20:25:20.093Z,73.30
2023-04-07T20:27:49.348Z,73.60
2023-04-07T20:30:16.933Z,73.80
2023-04-07T20:32:47.133Z,73.90
2023-04-07T20:35:15.667Z,74.20
2023-04-07T20:37:45.809Z,74.20
2023-04-07T20:40:13.207Z,74.40
2023-04-07T20:42:40.520Z,74.60
2023-04-07T20:45:08.446Z,74.70
2023-04-07T20:47:36.968Z,74.80
2023-04-07T20:50:04.782Z,74.90
2023-04-07T20:52:32.219Z,75.00
2023-04-07T20:54:59.483Z,75.20
2023-04-07T20:57:26.790Z,75.40
2023-04-07T20:59:55.825Z,75.60
2023-04-07T21:02:23.241Z,75.70
2023-04-07T21:04:50.939Z,75.90
2023-04-07T21:07:18.299Z,76.00
2023-04-07T21:09:45.623Z,76.20
2023-04-07T21:12:14.212Z,76.40
2023-04-07T21:14:41.462Z,76.60
2023-04-07T21:17:09.315Z,76.80
2023-04-07T21:19:36.752Z,76.70
2023-04-07T21:22:04.942Z,76.70
2023-04-07T21:24:32.460Z,76.70
2023-04-07T21:27:01.190Z,76.60
2023-04-07T21:29:31.904Z,76.60
2023-04-07T21:31:59.845Z,76.50
2023-04-07T21:34:27.185Z,76.30
2023-04-07T21:36:54.516Z,75.60
2023-04-07T21:39:21.856Z,74.90
2023-04-07T21:41:49.114Z,75.20
2023-04-07T21:44:20.030Z,75.00
2023-04-07T21:46:48.751Z,74.90
2023-04-07T21:49:21.079Z,74.60
2023-04-07T21:51:49.475Z,74.50
2023-04-07T21:54:17.380Z,74.20
2023-04-07T21:56:48.991Z,73.90
2023-04-07T21:59:17.796Z,74.10
2023-04-07T22:01:46.832Z,74.00
2023-04-07T22:04:14.593Z,74.40
2023-04-07T22:06:41.881Z,74.10
2023-04-07T22:09:10.063Z,74.00
2023-04-07T22:11:37.378Z,74.10
2023-04-07T22:14:04.596Z,74.10
2023-04-07T22:16:31.964Z,74.00
2023-04-07T22:18:59.681Z,74.10
2023-04-07T22:21:27.332Z,74.10
2023-04-07T22:23:54.585Z,74.30
2023-04-07T22:26:21.910Z,74.40
2023-04-07T22:28:49.447Z,74.50
2023-04-07T22:31:16.866Z,74.40
2023-04-07T22:33:44.084Z,74.60
2023-04-07T22:36:11.407Z,74.50
2023-04-07T22:38:38.668Z,74.50
2023-04-07T22:41:05.918Z,74.40
2023-04-07T22:43:33.140Z,74.50
2023-04-07T22:46:00.599Z,74.50
2023-04-07T22:48:30.350Z,74.60
2023-04-07T22:50:57.616Z,74.70
2023-04-07T22:53:24.993Z,74.70
2023-04-07T22:55:52.288Z,74.80
2023-04-07T22:58:19.589Z,75.00
2023-04-07T23:00:47.222Z,75.00
2023-04-07T23:03:15.175Z,74.90
2023-04-07T23:05:42.595Z,75.00
2023-04-07T23:08:09.776Z,74.70
2023-04-07T23:10:36.993Z,74.80
2023-04-07T23:13:04.254Z,74.90
2023-04-07T23:15:35.131Z,75.00
2023-04-07T23:18:02.404Z,74.90
2023-04-07T23:20:29.684Z,74.90
2023-04-07T23:22:56.958Z,74.70
2023-04-07T23:25:24.416Z,74.80
2023-04-07T23:27:51.871Z,74.70
2023-04-07T23:30:19.080Z,74.70
2023-04-07T23:32:46.858Z,74.80
2023-04-07T23:35:14.116Z,74.80
2023-04-07T23:37:43.314Z,74.90
2023-04-07T23:40:11.621Z,74.90
2023-04-07T23:42:38.791Z,74.90
2023-04-07T23:45:07.116Z,75.30
2023-04-07T23:47:34.268Z,75.20
2023-04-07T23:50:01.521Z,75.30
2023-04-07T23:52:28.812Z,75.10
2023-04-07T23:54:58.563Z,75.10
2023-04-07T23:57:25.765Z,75.20
2023-04-07T23:59:53.024Z,75.30
